GCTS/TFS METAR and TAF weather

Enter ICAO airport designator
Station Type Date Time Source
GCTS METAR 2019/04/18 20:00 UTC NOAA

GCTS 182000Z 07015KT 9999 BKN040 19/11 Q1019 NOSIG


Station Type Date Time Source
GCTS Decoded METAR 2019/04/18 20:00 UTC NOAA

Tenerife Sur, Spain (GCTS) 28-03N 016-34W 77M
Apr 18, 2019 - 04:00 PM EDT / 2019.04.18 2000 UTC
Wind: from the ENE (070 degrees) at 17 MPH (15 KT):0
Visibility: greater than 7 mile(s):0
Sky conditions: mostly cloudy
Temperature: 66 F (19 C)
Dew Point: 51 F (11 C)
Relative Humidity: 59%
Pressure (altimeter): 30.09 in. Hg (1019 hPa)
ob: GCTS 182000Z 07015KT 9999 BKN040 19/11 Q1019 NOSIG
cycle: 20

Station Type Date Time Source
GCTS TAF 2019/04/18 21:27 UTC NOAA

TAF GCTS 182000Z 1821/1921 34006KT 9999 FEW040 TX23/1914Z TN16/1906Z
TEMPO 1821/1824 06012KT
BECMG 1909/1911 09015KT

Example: see airport list